sensor_id;sensor_type;location;lat;lon;timestamp;P1;durP1;ratioP1;P2;durP2;ratioP2
27857;SDS011;16852;51.446;6.528;2023-04-06T00:00:57;9.57;;;6.07;;
27857;SDS011;16852;51.446;6.528;2023-04-06T00:02:57;9.30;;;6.22;;
27857;SDS011;16852;51.446;6.528;2023-04-06T00:04:58;11.93;;;6.13;;
27857;SDS011;16852;51.446;6.528;2023-04-06T00:06:59;9.32;;;6.07;;
27857;SDS011;16852;51.446;6.528;2023-04-06T00:09:00;9.48;;;5.90;;
27857;SDS011;16852;51.446;6.528;2023-04-06T00:11:01;9.68;;;6.20;;
27857;SDS011;16852;51.446;6.528;2023-04-06T00:13:02;10.98;;;6.25;;
27857;SDS011;16852;51.446;6.528;2023-04-06T00:15:03;9.77;;;6.35;;
27857;SDS011;16852;51.446;6.528;2023-04-06T00:19:06;9.75;;;6.10;;
27857;SDS011;16852;51.446;6.528;2023-04-06T00:21:07;9.80;;;6.03;;
27857;SDS011;16852;51.446;6.528;2023-04-06T00:23:07;12.60;;;6.70;;
27857;SDS011;16852;51.446;6.528;2023-04-06T00:25:08;10.02;;;6.28;;
27857;SDS011;16852;51.446;6.528;2023-04-06T00:27:10;12.40;;;6.97;;
27857;SDS011;16852;51.446;6.528;2023-04-06T00:29:11;11.40;;;6.68;;
27857;SDS011;16852;51.446;6.528;2023-04-06T00:31:12;10.77;;;6.60;;
27857;SDS011;16852;51.446;6.528;2023-04-06T00:33:13;11.52;;;6.85;;
27857;SDS011;16852;51.446;6.528;2023-04-06T00:35:13;12.65;;;7.20;;
27857;SDS011;16852;51.446;6.528;2023-04-06T00:37:15;10.15;;;6.38;;
27857;SDS011;16852;51.446;6.528;2023-04-06T00:39:16;13.57;;;7.03;;
27857;SDS011;16852;51.446;6.528;2023-04-06T00:41:17;9.68;;;6.55;;
27857;SDS011;16852;51.446;6.528;2023-04-06T00:43:18;12.98;;;6.95;;
27857;SDS011;16852;51.446;6.528;2023-04-06T00:45:19;12.10;;;7.13;;
27857;SDS011;16852;51.446;6.528;2023-04-06T00:47:20;12.52;;;7.18;;
27857;SDS011;16852;51.446;6.528;2023-04-06T00:49:21;14.13;;;7.15;;
27857;SDS011;16852;51.446;6.528;2023-04-06T00:51:22;12.30;;;7.47;;
27857;SDS011;16852;51.446;6.528;2023-04-06T00:53:23;11.43;;;7.28;;
27857;SDS011;16852;51.446;6.528;2023-04-06T00:55:24;10.65;;;6.38;;
27857;SDS011;16852;51.446;6.528;2023-04-06T00:57:25;10.27;;;6.80;;
27857;SDS011;16852;51.446;6.528;2023-04-06T00:59:26;12.32;;;6.95;;
27857;SDS011;16852;51.446;6.528;2023-04-06T01:01:28;9.60;;;6.28;;
27857;SDS011;16852;51.446;6.528;2023-04-06T01:03:29;11.00;;;6.82;;
27857;SDS011;16852;51.446;6.528;2023-04-06T01:05:30;10.65;;;6.53;;
27857;SDS011;16852;51.446;6.528;2023-04-06T01:09:33;11.30;;;6.45;;
27857;SDS011;16852;51.446;6.528;2023-04-06T01:11:35;8.65;;;5.80;;
27857;SDS011;16852;51.446;6.528;2023-04-06T01:13:36;11.33;;;6.83;;
27857;SDS011;16852;51.446;6.528;2023-04-06T01:15:37;8.52;;;5.40;;
27857;SDS011;16852;51.446;6.528;2023-04-06T01:17:39;10.55;;;6.22;;
27857;SDS011;16852;51.446;6.528;2023-04-06T01:19:40;9.93;;;6.15;;
27857;SDS011;16852;51.446;6.528;2023-04-06T01:21:41;10.88;;;5.80;;
27857;SDS011;16852;51.446;6.528;2023-04-06T01:23:43;11.20;;;6.43;;
27857;SDS011;16852;51.446;6.528;2023-04-06T01:25:46;9.90;;;6.07;;
27857;SDS011;16852;51.446;6.528;2023-04-06T01:27:47;10.25;;;5.90;;
27857;SDS011;16852;51.446;6.528;2023-04-06T01:29:48;10.45;;;6.65;;
27857;SDS011;16852;51.446;6.528;2023-04-06T01:31:48;8.98;;;5.97;;
27857;SDS011;16852;51.446;6.528;2023-04-06T01:33:49;8.55;;;5.95;;
27857;SDS011;16852;51.446;6.528;2023-04-06T01:35:50;10.98;;;6.38;;
27857;SDS011;16852;51.446;6.528;2023-04-06T01:37:53;11.00;;;7.10;;
27857;SDS011;16852;51.446;6.528;2023-04-06T01:39:55;12.23;;;6.97;;
27857;SDS011;16852;51.446;6.528;2023-04-06T01:41:55;12.48;;;7.45;;
27857;SDS011;16852;51.446;6.528;2023-04-06T01:43:56;10.70;;;6.28;;
27857;SDS011;16852;51.446;6.528;2023-04-06T01:45:58;12.05;;;6.90;;
27857;SDS011;16852;51.446;6.528;2023-04-06T01:47:59;10.82;;;6.55;;
27857;SDS011;16852;51.446;6.528;2023-04-06T01:49:59;9.38;;;6.30;;
27857;SDS011;16852;51.446;6.528;2023-04-06T01:52:01;11.68;;;6.88;;
27857;SDS011;16852;51.446;6.528;2023-04-06T01:54:01;9.98;;;6.40;;
27857;SDS011;16852;51.446;6.528;2023-04-06T01:56:02;10.10;;;6.03;;
27857;SDS011;16852;51.446;6.528;2023-04-06T01:58:03;9.18;;;6.55;;
27857;SDS011;16852;51.446;6.528;2023-04-06T02:00:04;8.07;;;5.40;;
27857;SDS011;16852;51.446;6.528;2023-04-06T02:02:06;10.03;;;6.30;;
27857;SDS011;16852;51.446;6.528;2023-04-06T02:04:06;12.32;;;6.30;;
27857;SDS011;16852;51.446;6.528;2023-04-06T02:06:07;9.65;;;6.25;;
27857;SDS011;16852;51.446;6.528;2023-04-06T02:08:08;10.35;;;6.45;;
27857;SDS011;16852;51.446;6.528;2023-04-06T02:10:12;11.00;;;5.85;;
27857;SDS011;16852;51.446;6.528;2023-04-06T02:12:13;10.85;;;6.55;;
27857;SDS011;16852;51.446;6.528;2023-04-06T02:14:14;10.70;;;6.43;;
27857;SDS011;16852;51.446;6.528;2023-04-06T02:16:15;8.88;;;6.03;;
27857;SDS011;16852;51.446;6.528;2023-04-06T02:18:16;10.05;;;5.95;;
27857;SDS011;16852;51.446;6.528;2023-04-06T02:20:18;8.95;;;6.18;;
27857;SDS011;16852;51.446;6.528;2023-04-06T02:22:19;11.55;;;6.72;;
27857;SDS011;16852;51.446;6.528;2023-04-06T02:24:20;12.20;;;6.68;;
27857;SDS011;16852;51.446;6.528;2023-04-06T02:26:21;13.43;;;6.50;;
27857;SDS011;16852;51.446;6.528;2023-04-06T02:28:21;11.52;;;6.25;;
27857;SDS011;16852;51.446;6.528;2023-04-06T02:30:22;10.15;;;5.95;;
27857;SDS011;16852;51.446;6.528;2023-04-06T02:32:23;10.73;;;6.63;;
27857;SDS011;16852;51.446;6.528;2023-04-06T02:34:24;10.63;;;6.05;;
27857;SDS011;16852;51.446;6.528;2023-04-06T02:36:25;12.38;;;6.70;;
27857;SDS011;16852;51.446;6.528;2023-04-06T02:38:26;12.05;;;6.32;;
27857;SDS011;16852;51.446;6.528;2023-04-06T02:40:27;10.75;;;7.00;;
27857;SDS011;16852;51.446;6.528;2023-04-06T02:42:27;10.63;;;6.57;;
27857;SDS011;16852;51.446;6.528;2023-04-06T02:44:28;11.75;;;6.35;;
27857;SDS011;16852;51.446;6.528;2023-04-06T02:46:29;9.82;;;6.30;;
27857;SDS011;16852;51.446;6.528;2023-04-06T02:48:31;10.68;;;6.70;;
27857;SDS011;16852;51.446;6.528;2023-04-06T02:50:31;9.60;;;6.47;;
27857;SDS011;16852;51.446;6.528;2023-04-06T02:52:32;9.88;;;5.60;;
27857;SDS011;16852;51.446;6.528;2023-04-06T02:54:33;9.68;;;6.03;;
27857;SDS011;16852;51.446;6.528;2023-04-06T02:56:34;10.55;;;6.13;;
27857;SDS011;16852;51.446;6.528;2023-04-06T02:58:35;11.57;;;6.60;;
27857;SDS011;16852;51.446;6.528;2023-04-06T03:00:36;9.52;;;5.68;;
27857;SDS011;16852;51.446;6.528;2023-04-06T03:02:37;9.30;;;5.38;;
27857;SDS011;16852;51.446;6.528;2023-04-06T03:04:38;12.18;;;5.85;;
27857;SDS011;16852;51.446;6.528;2023-04-06T03:06:39;9.70;;;6.10;;
27857;SDS011;16852;51.446;6.528;2023-04-06T03:08:40;10.75;;;6.60;;
27857;SDS011;16852;51.446;6.528;2023-04-06T03:10:40;10.25;;;5.85;;
27857;SDS011;16852;51.446;6.528;2023-04-06T03:12:41;10.43;;;6.95;;
27857;SDS011;16852;51.446;6.528;2023-04-06T03:14:42;12.10;;;6.95;;
27857;SDS011;16852;51.446;6.528;2023-04-06T03:16:43;11.60;;;7.07;;
27857;SDS011;16852;51.446;6.528;2023-04-06T03:18:44;12.20;;;7.55;;
27857;SDS011;16852;51.446;6.528;2023-04-06T03:20:47;13.60;;;7.47;;
27857;SDS011;16852;51.446;6.528;2023-04-06T03:22:48;12.57;;;7.40;;
27857;SDS011;16852;51.446;6.528;2023-04-06T03:24:49;13.23;;;7.40;;
27857;SDS011;16852;51.446;6.528;2023-04-06T03:26:50;14.55;;;7.88;;
27857;SDS011;16852;51.446;6.528;2023-04-06T03:28:50;12.85;;;7.47;;
27857;SDS011;16852;51.446;6.528;2023-04-06T03:30:51;12.07;;;7.53;;
27857;SDS011;16852;51.446;6.528;2023-04-06T03:32:52;12.13;;;7.45;;
27857;SDS011;16852;51.446;6.528;2023-04-06T03:34:53;12.48;;;7.80;;
27857;SDS011;16852;51.446;6.528;2023-04-06T03:36:54;10.80;;;6.93;;
27857;SDS011;16852;51.446;6.528;2023-04-06T03:38:54;12.73;;;7.55;;
27857;SDS011;16852;51.446;6.528;2023-04-06T03:40:55;11.63;;;7.05;;
27857;SDS011;16852;51.446;6.528;2023-04-06T03:42:56;13.05;;;6.60;;
27857;SDS011;16852;51.446;6.528;2023-04-06T03:44:57;12.43;;;7.28;;
27857;SDS011;16852;51.446;6.528;2023-04-06T03:46:58;12.80;;;7.55;;
27857;SDS011;16852;51.446;6.528;2023-04-06T03:48:59;13.02;;;6.95;;
27857;SDS011;16852;51.446;6.528;2023-04-06T03:51:00;15.00;;;7.82;;
27857;SDS011;16852;51.446;6.528;2023-04-06T03:53:01;14.05;;;7.22;;
27857;SDS011;16852;51.446;6.528;2023-04-06T03:55:03;13.80;;;7.95;;
27857;SDS011;16852;51.446;6.528;2023-04-06T03:57:04;13.85;;;7.85;;
27857;SDS011;16852;51.446;6.528;2023-04-06T03:59:05;11.70;;;7.68;;
27857;SDS011;16852;51.446;6.528;2023-04-06T04:01:06;13.88;;;8.32;;
27857;SDS011;16852;51.446;6.528;2023-04-06T04:03:07;13.77;;;8.00;;
27857;SDS011;16852;51.446;6.528;2023-04-06T04:05:07;12.00;;;7.68;;
27857;SDS011;16852;51.446;6.528;2023-04-06T04:07:08;14.35;;;8.35;;
27857;SDS011;16852;51.446;6.528;2023-04-06T04:09:09;13.07;;;7.60;;
27857;SDS011;16852;51.446;6.528;2023-04-06T04:11:10;15.57;;;9.07;;
27857;SDS011;16852;51.446;6.528;2023-04-06T04:13:11;14.25;;;8.30;;
27857;SDS011;16852;51.446;6.528;2023-04-06T04:15:11;14.68;;;8.75;;
27857;SDS011;16852;51.446;6.528;2023-04-06T04:17:12;15.70;;;9.10;;
27857;SDS011;16852;51.446;6.528;2023-04-06T04:19:13;12.93;;;8.32;;
27857;SDS011;16852;51.446;6.528;2023-04-06T04:21:14;16.58;;;8.90;;
27857;SDS011;16852;51.446;6.528;2023-04-06T04:23:14;14.18;;;8.48;;
27857;SDS011;16852;51.446;6.528;2023-04-06T04:25:15;14.07;;;8.50;;
27857;SDS011;16852;51.446;6.528;2023-04-06T04:27:16;15.40;;;7.68;;
27857;SDS011;16852;51.446;6.528;2023-04-06T04:29:17;16.10;;;8.60;;
27857;SDS011;16852;51.446;6.528;2023-04-06T04:31:21;16.27;;;9.10;;
27857;SDS011;16852;51.446;6.528;2023-04-06T04:33:22;15.93;;;8.95;;
27857;SDS011;16852;51.446;6.528;2023-04-06T04:35:23;14.20;;;8.75;;
27857;SDS011;16852;51.446;6.528;2023-04-06T04:37:24;14.35;;;8.70;;
27857;SDS011;16852;51.446;6.528;2023-04-06T04:39:25;17.00;;;9.05;;
27857;SDS011;16852;51.446;6.528;2023-04-06T04:41:25;18.73;;;9.20;;
27857;SDS011;16852;51.446;6.528;2023-04-06T04:43:26;16.33;;;9.30;;
27857;SDS011;16852;51.446;6.528;2023-04-06T04:45:27;17.63;;;10.15;;
27857;SDS011;16852;51.446;6.528;2023-04-06T04:47:28;16.67;;;9.65;;
27857;SDS011;16852;51.446;6.528;2023-04-06T04:49:29;17.02;;;9.25;;
27857;SDS011;16852;51.446;6.528;2023-04-06T04:51:30;17.67;;;10.23;;
27857;SDS011;16852;51.446;6.528;2023-04-06T04:53:32;16.85;;;9.63;;
27857;SDS011;16852;51.446;6.528;2023-04-06T04:55:33;18.88;;;9.88;;
27857;SDS011;16852;51.446;6.528;2023-04-06T04:57:34;15.57;;;9.98;;
27857;SDS011;16852;51.446;6.528;2023-04-06T04:59:35;15.38;;;9.38;;
27857;SDS011;16852;51.446;6.528;2023-04-06T05:01:36;18.23;;;9.88;;
27857;SDS011;16852;51.446;6.528;2023-04-06T05:03:37;14.85;;;9.15;;
27857;SDS011;16852;51.446;6.528;2023-04-06T05:05:38;18.20;;;9.20;;
27857;SDS011;16852;51.446;6.528;2023-04-06T05:07:39;17.13;;;9.25;;
27857;SDS011;16852;51.446;6.528;2023-04-06T05:09:40;15.98;;;8.88;;
27857;SDS011;16852;51.446;6.528;2023-04-06T05:11:41;14.25;;;8.70;;
27857;SDS011;16852;51.446;6.528;2023-04-06T05:13:41;15.77;;;8.93;;
27857;SDS011;16852;51.446;6.528;2023-04-06T05:15:42;16.48;;;9.57;;
27857;SDS011;16852;51.446;6.528;2023-04-06T05:17:43;13.95;;;8.80;;
27857;SDS011;16852;51.446;6.528;2023-04-06T05:19:44;17.88;;;9.65;;
27857;SDS011;16852;51.446;6.528;2023-04-06T05:21:45;16.17;;;8.63;;
27857;SDS011;16852;51.446;6.528;2023-04-06T05:23:46;14.13;;;8.80;;
27857;SDS011;16852;51.446;6.528;2023-04-06T05:25:47;16.70;;;9.98;;
27857;SDS011;16852;51.446;6.528;2023-04-06T05:27:48;18.35;;;10.20;;
27857;SDS011;16852;51.446;6.528;2023-04-06T05:29:49;18.17;;;10.52;;
27857;SDS011;16852;51.446;6.528;2023-04-06T05:31:50;17.23;;;10.15;;
27857;SDS011;16852;51.446;6.528;2023-04-06T05:33:51;17.38;;;9.68;;
27857;SDS011;16852;51.446;6.528;2023-04-06T05:35:52;17.25;;;9.90;;
27857;SDS011;16852;51.446;6.528;2023-04-06T05:37:53;16.58;;;9.60;;
27857;SDS011;16852;51.446;6.528;2023-04-06T05:39:54;18.00;;;9.73;;
27857;SDS011;16852;51.446;6.528;2023-04-06T05:41:55;14.40;;;8.65;;
27857;SDS011;16852;51.446;6.528;2023-04-06T05:43:56;16.17;;;9.13;;
27857;SDS011;16852;51.446;6.528;2023-04-06T05:45:57;15.07;;;8.55;;
27857;SDS011;16852;51.446;6.528;2023-04-06T05:47:58;17.75;;;9.52;;
27857;SDS011;16852;51.446;6.528;2023-04-06T05:49:59;15.27;;;8.52;;
27857;SDS011;16852;51.446;6.528;2023-04-06T05:52:00;14.57;;;8.75;;
27857;SDS011;16852;51.446;6.528;2023-04-06T05:54:01;14.77;;;8.80;;
27857;SDS011;16852;51.446;6.528;2023-04-06T05:56:02;15.23;;;9.27;;
27857;SDS011;16852;51.446;6.528;2023-04-06T05:58:03;18.55;;;9.63;;
27857;SDS011;16852;51.446;6.528;2023-04-06T06:00:05;15.82;;;9.57;;
27857;SDS011;16852;51.446;6.528;2023-04-06T06:02:08;15.68;;;8.98;;
27857;SDS011;16852;51.446;6.528;2023-04-06T06:04:10;15.52;;;9.30;;
27857;SDS011;16852;51.446;6.528;2023-04-06T06:06:11;15.27;;;8.80;;
27857;SDS011;16852;51.446;6.528;2023-04-06T06:08:11;21.05;;;9.38;;
27857;SDS011;16852;51.446;6.528;2023-04-06T06:10:12;19.45;;;9.48;;
27857;SDS011;16852;51.446;6.528;2023-04-06T06:12:13;15.35;;;9.10;;
27857;SDS011;16852;51.446;6.528;2023-04-06T06:14:14;16.50;;;8.80;;
27857;SDS011;16852;51.446;6.528;2023-04-06T06:16:15;16.05;;;9.50;;
27857;SDS011;16852;51.446;6.528;2023-04-06T06:18:17;15.35;;;8.50;;
27857;SDS011;16852;51.446;6.528;2023-04-06T06:20:17;15.13;;;8.98;;
27857;SDS011;16852;51.446;6.528;2023-04-06T06:22:19;15.60;;;9.63;;
27857;SDS011;16852;51.446;6.528;2023-04-06T06:24:20;15.93;;;8.65;;
27857;SDS011;16852;51.446;6.528;2023-04-06T06:26:21;18.63;;;9.73;;
27857;SDS011;16852;51.446;6.528;2023-04-06T06:28:22;17.90;;;9.50;;
27857;SDS011;16852;51.446;6.528;2023-04-06T06:30:22;15.40;;;9.70;;
27857;SDS011;16852;51.446;6.528;2023-04-06T06:32:23;17.13;;;9.35;;
27857;SDS011;16852;51.446;6.528;2023-04-06T06:34:24;16.80;;;8.48;;
27857;SDS011;16852;51.446;6.528;2023-04-06T06:36:25;15.40;;;8.23;;
27857;SDS011;16852;51.446;6.528;2023-04-06T06:38:26;18.05;;;9.23;;
27857;SDS011;16852;51.446;6.528;2023-04-06T06:40:27;16.52;;;7.90;;
27857;SDS011;16852;51.446;6.528;2023-04-06T06:42:28;13.70;;;8.30;;
27857;SDS011;16852;51.446;6.528;2023-04-06T06:44:29;14.88;;;7.75;;
27857;SDS011;16852;51.446;6.528;2023-04-06T06:46:30;14.43;;;8.32;;
27857;SDS011;16852;51.446;6.528;2023-04-06T06:48:31;13.38;;;8.20;;
27857;SDS011;16852;51.446;6.528;2023-04-06T06:50:32;15.30;;;8.40;;
27857;SDS011;16852;51.446;6.528;2023-04-06T06:52:33;12.38;;;8.20;;
27857;SDS011;16852;51.446;6.528;2023-04-06T06:54:33;12.30;;;7.93;;
27857;SDS011;16852;51.446;6.528;2023-04-06T06:56:37;19.30;;;8.90;;
27857;SDS011;16852;51.446;6.528;2023-04-06T06:58:38;12.45;;;8.27;;
27857;SDS011;16852;51.446;6.528;2023-04-06T07:00:40;11.90;;;8.05;;
27857;SDS011;16852;51.446;6.528;2023-04-06T07:02:40;16.63;;;8.57;;
27857;SDS011;16852;51.446;6.528;2023-04-06T07:04:41;18.40;;;9.55;;
27857;SDS011;16852;51.446;6.528;2023-04-06T07:06:42;13.90;;;8.15;;
27857;SDS011;16852;51.446;6.528;2023-04-06T07:08:42;11.57;;;7.88;;
27857;SDS011;16852;51.446;6.528;2023-04-06T07:10:43;11.57;;;7.45;;
27857;SDS011;16852;51.446;6.528;2023-04-06T07:12:45;15.75;;;8.50;;
27857;SDS011;16852;51.446;6.528;2023-04-06T07:14:46;17.85;;;8.75;;
27857;SDS011;16852;51.446;6.528;2023-04-06T07:16:47;17.08;;;9.05;;
27857;SDS011;16852;51.446;6.528;2023-04-06T07:18:52;16.00;;;8.55;;
27857;SDS011;16852;51.446;6.528;2023-04-06T07:20:53;13.07;;;8.43;;
27857;SDS011;16852;51.446;6.528;2023-04-06T07:22:54;14.90;;;8.10;;
27857;SDS011;16852;51.446;6.528;2023-04-06T07:24:55;15.20;;;8.85;;
27857;SDS011;16852;51.446;6.528;2023-04-06T07:26:55;14.00;;;8.05;;
27857;SDS011;16852;51.446;6.528;2023-04-06T07:28:57;15.07;;;8.37;;
27857;SDS011;16852;51.446;6.528;2023-04-06T07:30:58;14.68;;;8.88;;
27857;SDS011;16852;51.446;6.528;2023-04-06T07:32:59;15.65;;;8.25;;
27857;SDS011;16852;51.446;6.528;2023-04-06T07:35:00;13.38;;;8.35;;
27857;SDS011;16852;51.446;6.528;2023-04-06T07:37:01;12.15;;;7.68;;
27857;SDS011;16852;51.446;6.528;2023-04-06T07:39:03;12.77;;;7.97;;
27857;SDS011;16852;51.446;6.528;2023-04-06T07:41:03;16.73;;;9.43;;
27857;SDS011;16852;51.446;6.528;2023-04-06T07:43:05;18.30;;;8.75;;
27857;SDS011;16852;51.446;6.528;2023-04-06T07:45:06;15.75;;;8.48;;
27857;SDS011;16852;51.446;6.528;2023-04-06T07:47:07;12.35;;;7.90;;
27857;SDS011;16852;51.446;6.528;2023-04-06T07:49:08;15.02;;;9.23;;
27857;SDS011;16852;51.446;6.528;2023-04-06T07:51:09;12.55;;;8.30;;
27857;SDS011;16852;51.446;6.528;2023-04-06T07:53:32;14.90;;;7.93;;
27857;SDS011;16852;51.446;6.528;2023-04-06T07:55:33;14.25;;;9.00;;
27857;SDS011;16852;51.446;6.528;2023-04-06T07:57:34;15.90;;;9.20;;
27857;SDS011;16852;51.446;6.528;2023-04-06T07:59:35;14.13;;;8.48;;
27857;SDS011;16852;51.446;6.528;2023-04-06T08:01:35;15.15;;;8.88;;
27857;SDS011;16852;51.446;6.528;2023-04-06T08:03:36;14.52;;;9.68;;
27857;SDS011;16852;51.446;6.528;2023-04-06T08:05:37;15.15;;;8.85;;
27857;SDS011;16852;51.446;6.528;2023-04-06T08:07:37;13.95;;;8.23;;
27857;SDS011;16852;51.446;6.528;2023-04-06T08:09:38;13.55;;;8.63;;
27857;SDS011;16852;51.446;6.528;2023-04-06T08:11:39;16.58;;;8.98;;
27857;SDS011;16852;51.446;6.528;2023-04-06T08:13:40;14.32;;;8.07;;
27857;SDS011;16852;51.446;6.528;2023-04-06T08:15:41;15.93;;;8.48;;
27857;SDS011;16852;51.446;6.528;2023-04-06T08:17:42;16.20;;;8.82;;
27857;SDS011;16852;51.446;6.528;2023-04-06T08:19:43;15.48;;;8.48;;
27857;SDS011;16852;51.446;6.528;2023-04-06T08:21:44;20.20;;;9.15;;
27857;SDS011;16852;51.446;6.528;2023-04-06T08:23:46;17.97;;;9.47;;
27857;SDS011;16852;51.446;6.528;2023-04-06T08:25:47;14.57;;;8.65;;
27857;SDS011;16852;51.446;6.528;2023-04-06T08:27:47;13.82;;;8.45;;
27857;SDS011;16852;51.446;6.528;2023-04-06T08:29:49;19.25;;;9.93;;
27857;SDS011;16852;51.446;6.528;2023-04-06T08:31:50;15.98;;;8.93;;
27857;SDS011;16852;51.446;6.528;2023-04-06T08:33:51;13.23;;;8.35;;
27857;SDS011;16852;51.446;6.528;2023-04-06T08:35:52;16.08;;;8.57;;
27857;SDS011;16852;51.446;6.528;2023-04-06T08:37:52;15.95;;;9.30;;
27857;SDS011;16852;51.446;6.528;2023-04-06T08:39:53;16.77;;;9.10;;
27857;SDS011;16852;51.446;6.528;2023-04-06T08:41:55;13.38;;;8.63;;
27857;SDS011;16852;51.446;6.528;2023-04-06T08:44:00;16.63;;;10.00;;
27857;SDS011;16852;51.446;6.528;2023-04-06T08:46:02;16.65;;;9.73;;
27857;SDS011;16852;51.446;6.528;2023-04-06T08:48:03;15.68;;;8.77;;
27857;SDS011;16852;51.446;6.528;2023-04-06T08:50:07;16.92;;;9.48;;
27857;SDS011;16852;51.446;6.528;2023-04-06T08:52:09;17.08;;;10.00;;
27857;SDS011;16852;51.446;6.528;2023-04-06T08:54:11;19.02;;;8.85;;
27857;SDS011;16852;51.446;6.528;2023-04-06T08:56:14;19.23;;;9.88;;
27857;SDS011;16852;51.446;6.528;2023-04-06T08:58:16;15.45;;;9.13;;
27857;SDS011;16852;51.446;6.528;2023-04-06T09:00:17;19.50;;;11.05;;
27857;SDS011;16852;51.446;6.528;2023-04-06T09:02:18;17.40;;;9.30;;
27857;SDS011;16852;51.446;6.528;2023-04-06T09:04:20;17.55;;;9.88;;
27857;SDS011;16852;51.446;6.528;2023-04-06T09:06:21;17.27;;;9.73;;
27857;SDS011;16852;51.446;6.528;2023-04-06T09:08:22;18.27;;;10.10;;
27857;SDS011;16852;51.446;6.528;2023-04-06T09:10:22;23.60;;;10.63;;
27857;SDS011;16852;51.446;6.528;2023-04-06T09:12:25;20.55;;;11.00;;
27857;SDS011;16852;51.446;6.528;2023-04-06T09:14:36;16.10;;;9.48;;
27857;SDS011;16852;51.446;6.528;2023-04-06T09:16:38;17.52;;;9.68;;
27857;SDS011;16852;51.446;6.528;2023-04-06T09:18:44;16.27;;;9.80;;
27857;SDS011;16852;51.446;6.528;2023-04-06T09:20:45;18.90;;;9.63;;
27857;SDS011;16852;51.446;6.528;2023-04-06T09:22:57;18.50;;;9.88;;
27857;SDS011;16852;51.446;6.528;2023-04-06T09:24:58;15.77;;;9.90;;
27857;SDS011;16852;51.446;6.528;2023-04-06T09:26:59;16.52;;;9.75;;
27857;SDS011;16852;51.446;6.528;2023-04-06T09:29:00;21.98;;;10.68;;
27857;SDS011;16852;51.446;6.528;2023-04-06T09:31:01;22.27;;;11.07;;
27857;SDS011;16852;51.446;6.528;2023-04-06T09:33:02;16.58;;;10.38;;
27857;SDS011;16852;51.446;6.528;2023-04-06T09:35:06;24.17;;;10.80;;
27857;SDS011;16852;51.446;6.528;2023-04-06T09:37:17;16.27;;;9.82;;
27857;SDS011;16852;51.446;6.528;2023-04-06T09:39:20;15.00;;;9.27;;
27857;SDS011;16852;51.446;6.528;2023-04-06T09:41:29;19.33;;;10.95;;
27857;SDS011;16852;51.446;6.528;2023-04-06T09:43:36;22.77;;;10.60;;
27857;SDS011;16852;51.446;6.528;2023-04-06T09:45:37;16.13;;;9.63;;
27857;SDS011;16852;51.446;6.528;2023-04-06T09:47:39;17.77;;;10.55;;
27857;SDS011;16852;51.446;6.528;2023-04-06T09:49:42;15.60;;;9.88;;
27857;SDS011;16852;51.446;6.528;2023-04-06T09:51:48;21.80;;;10.20;;
27857;SDS011;16852;51.446;6.528;2023-04-06T09:53:54;15.88;;;9.88;;
27857;SDS011;16852;51.446;6.528;2023-04-06T09:56:02;20.58;;;11.10;;
27857;SDS011;16852;51.446;6.528;2023-04-06T09:58:04;20.92;;;10.85;;
27857;SDS011;16852;51.446;6.528;2023-04-06T10:02:27;26.45;;;11.80;;
27857;SDS011;16852;51.446;6.528;2023-04-06T10:04:40;37.45;;;12.65;;
27857;SDS011;16852;51.446;6.528;2023-04-06T10:06:48;40.08;;;12.02;;
27857;SDS011;16852;51.446;6.528;2023-04-06T10:08:52;24.30;;;11.73;;
27857;SDS011;16852;51.446;6.528;2023-04-06T10:10:55;24.38;;;10.55;;
27857;SDS011;16852;51.446;6.528;2023-04-06T10:12:56;25.73;;;12.65;;
27857;SDS011;16852;51.446;6.528;2023-04-06T10:14:57;21.70;;;11.27;;
27857;SDS011;16852;51.446;6.528;2023-04-06T10:16:59;22.98;;;11.90;;
27857;SDS011;16852;51.446;6.528;2023-04-06T10:19:12;19.98;;;11.18;;
27857;SDS011;16852;51.446;6.528;2023-04-06T10:21:19;22.13;;;10.95;;
27857;SDS011;16852;51.446;6.528;2023-04-06T10:23:43;20.08;;;10.75;;
27857;SDS011;16852;51.446;6.528;2023-04-06T10:26:15;20.45;;;11.02;;
27857;SDS011;16852;51.446;6.528;2023-04-06T10:28:17;23.70;;;11.68;;
27857;SDS011;16852;51.446;6.528;2023-04-06T10:30:19;19.75;;;11.77;;
27857;SDS011;16852;51.446;6.528;2023-04-06T10:32:31;25.40;;;10.70;;
27857;SDS011;16852;51.446;6.528;2023-04-06T10:34:36;27.58;;;12.18;;
27857;SDS011;16852;51.446;6.528;2023-04-06T10:36:36;26.17;;;11.52;;
27857;SDS011;16852;51.446;6.528;2023-04-06T10:38:38;23.17;;;12.40;;
27857;SDS011;16852;51.446;6.528;2023-04-06T10:40:40;30.38;;;12.98;;
27857;SDS011;16852;51.446;6.528;2023-04-06T10:42:47;31.77;;;13.30;;
27857;SDS011;16852;51.446;6.528;2023-04-06T10:44:49;24.35;;;11.95;;
27857;SDS011;16852;51.446;6.528;2023-04-06T10:46:57;55.13;;;15.38;;
27857;SDS011;16852;51.446;6.528;2023-04-06T10:49:10;34.83;;;14.20;;
27857;SDS011;16852;51.446;6.528;2023-04-06T10:51:16;30.58;;;12.00;;
27857;SDS011;16852;51.446;6.528;2023-04-06T10:53:23;30.25;;;13.60;;
27857;SDS011;16852;51.446;6.528;2023-04-06T10:55:28;26.90;;;13.13;;
27857;SDS011;16852;51.446;6.528;2023-04-06T10:57:29;23.58;;;11.70;;
27857;SDS011;16852;51.446;6.528;2023-04-06T10:59:33;26.45;;;12.80;;
27857;SDS011;16852;51.446;6.528;2023-04-06T11:01:34;23.45;;;12.70;;
27857;SDS011;16852;51.446;6.528;2023-04-06T11:03:42;19.92;;;11.68;;
27857;SDS011;16852;51.446;6.528;2023-04-06T11:05:44;24.45;;;12.60;;
27857;SDS011;16852;51.446;6.528;2023-04-06T11:07:46;23.30;;;12.35;;
27857;SDS011;16852;51.446;6.528;2023-04-06T11:09:49;24.42;;;13.32;;
27857;SDS011;16852;51.446;6.528;2023-04-06T11:11:50;27.50;;;14.10;;
27857;SDS011;16852;51.446;6.528;2023-04-06T11:13:52;28.33;;;13.45;;
27857;SDS011;16852;51.446;6.528;2023-04-06T11:15:53;23.23;;;12.38;;
27857;SDS011;16852;51.446;6.528;2023-04-06T11:17:53;20.85;;;11.32;;
27857;SDS011;16852;51.446;6.528;2023-04-06T11:19:55;21.98;;;12.18;;
27857;SDS011;16852;51.446;6.528;2023-04-06T11:21:56;22.67;;;12.48;;
27857;SDS011;16852;51.446;6.528;2023-04-06T11:24:06;25.65;;;12.35;;
27857;SDS011;16852;51.446;6.528;2023-04-06T11:26:17;24.38;;;11.88;;
27857;SDS011;16852;51.446;6.528;2023-04-06T11:28:18;26.90;;;12.45;;
27857;SDS011;16852;51.446;6.528;2023-04-06T11:30:19;22.58;;;12.65;;
27857;SDS011;16852;51.446;6.528;2023-04-06T11:32:20;23.40;;;12.18;;
27857;SDS011;16852;51.446;6.528;2023-04-06T11:34:22;24.13;;;13.35;;
27857;SDS011;16852;51.446;6.528;2023-04-06T11:36:26;21.90;;;12.68;;
27857;SDS011;16852;51.446;6.528;2023-04-06T11:38:30;21.60;;;13.43;;
27857;SDS011;16852;51.446;6.528;2023-04-06T11:40:31;25.58;;;12.23;;
27857;SDS011;16852;51.446;6.528;2023-04-06T11:42:34;22.65;;;12.43;;
27857;SDS011;16852;51.446;6.528;2023-04-06T11:46:52;21.30;;;11.95;;
27857;SDS011;16852;51.446;6.528;2023-04-06T11:48:57;23.60;;;12.38;;
27857;SDS011;16852;51.446;6.528;2023-04-06T11:51:01;19.77;;;11.55;;
27857;SDS011;16852;51.446;6.528;2023-04-06T11:53:03;20.85;;;11.90;;
27857;SDS011;16852;51.446;6.528;2023-04-06T11:55:11;22.98;;;12.63;;
27857;SDS011;16852;51.446;6.528;2023-04-06T11:57:17;23.50;;;12.40;;
27857;SDS011;16852;51.446;6.528;2023-04-06T11:59:18;21.83;;;12.13;;
27857;SDS011;16852;51.446;6.528;2023-04-06T12:01:19;22.20;;;12.65;;
27857;SDS011;16852;51.446;6.528;2023-04-06T12:03:20;19.15;;;11.75;;
27857;SDS011;16852;51.446;6.528;2023-04-06T12:05:21;19.30;;;11.32;;
27857;SDS011;16852;51.446;6.528;2023-04-06T12:07:21;19.67;;;11.57;;
27857;SDS011;16852;51.446;6.528;2023-04-06T12:09:22;16.52;;;9.52;;
27857;SDS011;16852;51.446;6.528;2023-04-06T12:11:23;22.42;;;12.00;;